createdAt,value
2022-11-18T00:01:31.648Z,13.30
2022-11-18T00:03:59.713Z,13.30
2022-11-18T00:06:30.326Z,13.30
2022-11-18T00:09:01.671Z,13.30
2022-11-18T00:11:48.746Z,13.30
2022-11-18T00:14:20.330Z,13.30
2022-11-18T00:16:53.373Z,13.30
2022-11-18T00:19:25.228Z,13.30
2022-11-18T00:21:53.862Z,13.30
2022-11-18T00:24:25.101Z,13.30
2022-11-18T00:26:54.313Z,13.30
2022-11-18T00:29:26.292Z,13.30
2022-11-18T00:31:54.936Z,13.30
2022-11-18T00:34:23.828Z,13.30
2022-11-18T00:36:52.086Z,13.30
2022-11-18T00:39:21.931Z,13.30
2022-11-18T00:42:09.382Z,13.30
2022-11-18T00:44:38.058Z,13.30
2022-11-18T00:47:07.333Z,13.20
2022-11-18T00:49:35.520Z,13.30
2022-11-18T00:52:04.640Z,13.30
2022-11-18T00:54:34.284Z,13.10
2022-11-18T00:57:05.255Z,13.30
2022-11-18T00:59:33.600Z,13.30
2022-11-18T01:02:01.634Z,13.30
2022-11-18T01:04:29.918Z,13.30
2022-11-18T01:06:58.072Z,13.30
2022-11-18T01:09:26.192Z,13.30
2022-11-18T01:13:09.096Z,13.30
2022-11-18T01:15:41.957Z,13.30
2022-11-18T01:18:10.187Z,13.30
2022-11-18T01:20:39.267Z,13.30
2022-11-18T01:23:07.356Z,13.30
2022-11-18T01:25:37.987Z,13.30
2022-11-18T01:28:06.531Z,13.30
2022-11-18T01:30:35.752Z,13.30
2022-11-18T01:33:06.407Z,13.30
2022-11-18T01:35:36.599Z,13.30
2022-11-18T01:38:05.019Z,13.40
2022-11-18T01:40:34.503Z,13.30
2022-11-18T01:43:02.872Z,13.40
2022-11-18T01:45:35.711Z,13.40
2022-11-18T01:48:10.254Z,13.30
2022-11-18T01:50:43.489Z,13.40
2022-11-18T01:53:18.199Z,13.30
2022-11-18T01:55:50.158Z,13.30
2022-11-18T01:58:24.974Z,13.30
2022-11-18T02:00:53.896Z,13.40
2022-11-18T02:03:24.277Z,13.40
2022-11-18T02:05:55.837Z,13.40
2022-11-18T02:08:24.659Z,13.40
2022-11-18T02:10:52.697Z,13.40
2022-11-18T02:13:20.852Z,13.40
2022-11-18T02:15:59.197Z,13.40
2022-11-18T02:18:43.117Z,13.40
2022-11-18T02:21:26.156Z,13.30
2022-11-18T02:24:29.412Z,13.30
2022-11-18T02:27:46.883Z,13.30
2022-11-18T02:30:19.629Z,13.30
2022-11-18T02:32:55.923Z,13.30
2022-11-18T02:35:30.721Z,13.30
2022-11-18T02:38:05.556Z,13.30
2022-11-18T02:40:39.185Z,13.30
2022-11-18T02:43:13.639Z,13.30
2022-11-18T02:45:49.381Z,13.40
2022-11-18T02:48:21.581Z,13.40
2022-11-18T02:50:52.937Z,13.40
2022-11-18T02:53:24.259Z,13.40
2022-11-18T02:55:55.290Z,13.40
2022-11-18T02:58:26.290Z,13.40
2022-11-18T03:00:57.491Z,13.40
2022-11-18T03:03:30.655Z,13.40
2022-11-18T03:06:10.433Z,13.40
2022-11-18T03:08:46.917Z,13.40
2022-11-18T03:11:21.331Z,13.40
2022-11-18T03:14:08.868Z,13.40
2022-11-18T03:16:46.154Z,13.40
2022-11-18T03:19:22.753Z,13.40
2022-11-18T03:22:03.323Z,13.40
2022-11-18T03:24:34.908Z,13.40
2022-11-18T03:27:12.860Z,13.40
2022-11-18T03:29:49.097Z,13.40
2022-11-18T03:32:25.365Z,13.40
2022-11-18T03:34:59.041Z,13.40
2022-11-18T03:37:29.578Z,13.40
2022-11-18T03:40:05.863Z,13.40
2022-11-18T03:42:41.623Z,13.40
2022-11-18T03:45:17.065Z,13.40
2022-11-18T03:47:53.977Z,13.40
2022-11-18T03:50:28.658Z,13.40
2022-11-18T03:52:57.622Z,13.40
2022-11-18T03:55:31.889Z,13.40
2022-11-18T03:58:08.276Z,13.40
2022-11-18T04:00:44.050Z,13.40
2022-11-18T04:03:14.298Z,13.40
2022-11-18T04:05:44.909Z,13.40
2022-11-18T04:08:22.161Z,13.40
2022-11-18T04:11:02.988Z,13.40
2022-11-18T04:13:36.278Z,13.40
2022-11-18T04:16:05.178Z,13.40
2022-11-18T04:18:34.506Z,13.40
2022-11-18T04:21:02.529Z,13.40
2022-11-18T04:23:30.509Z,13.40
2022-11-18T04:25:58.517Z,13.40
2022-11-18T04:28:26.522Z,13.40
2022-11-18T04:30:54.522Z,13.40
2022-11-18T04:33:22.505Z,13.40
2022-11-18T04:35:51.849Z,13.40
2022-11-18T04:38:22.082Z,13.40
2022-11-18T04:40:50.268Z,13.40
2022-11-18T04:43:18.232Z,13.40
2022-11-18T04:45:46.348Z,13.40
2022-11-18T04:48:14.352Z,13.40
2022-11-18T04:50:42.409Z,13.40
2022-11-18T04:53:11.772Z,13.30
2022-11-18T04:55:39.777Z,13.30
2022-11-18T04:58:07.859Z,13.30
2022-11-18T05:00:35.892Z,13.30
2022-11-18T05:03:03.951Z,13.30
2022-11-18T05:05:31.938Z,13.30
2022-11-18T05:07:59.936Z,13.30
2022-11-18T05:10:29.291Z,13.30
2022-11-18T05:12:56.310Z,13.30
2022-11-18T05:15:24.794Z,13.20
2022-11-18T05:17:52.945Z,13.20
2022-11-18T05:20:21.460Z,13.20
2022-11-18T05:22:49.452Z,13.20
2022-11-18T05:25:17.689Z,13.20
2022-11-18T05:27:47.017Z,13.10
2022-11-18T05:30:15.532Z,13.10
2022-11-18T05:32:43.502Z,13.10
2022-11-18T05:35:11.533Z,13.10
2022-11-18T05:37:39.503Z,13.10
2022-11-18T05:40:09.971Z,13.00
2022-11-18T05:42:55.696Z,13.00
2022-11-18T05:45:25.060Z,13.00
2022-11-18T05:48:03.995Z,13.00
2022-11-18T05:50:33.229Z,13.00
2022-11-18T05:53:01.871Z,13.00
2022-11-18T05:55:38.257Z,12.90
2022-11-18T05:58:06.256Z,12.90
2022-11-18T06:00:35.699Z,12.90
2022-11-18T06:03:10.283Z,12.90
2022-11-18T06:05:39.182Z,12.90
2022-11-18T06:08:09.641Z,12.90
2022-11-18T06:10:42.471Z,12.90
2022-11-18T06:13:18.873Z,12.80
2022-11-18T06:15:49.087Z,12.80
2022-11-18T06:18:24.957Z,12.80
2022-11-18T06:20:57.288Z,12.80
2022-11-18T06:23:25.396Z,12.80
2022-11-18T06:25:54.130Z,12.80
2022-11-18T06:28:24.042Z,12.70
2022-11-18T06:30:53.534Z,12.70
2022-11-18T06:33:21.550Z,12.70
2022-11-18T06:35:49.553Z,12.70
2022-11-18T06:38:17.520Z,12.70
2022-11-18T06:40:45.841Z,12.70
2022-11-18T06:43:31.658Z,12.70
2022-11-18T06:46:19.585Z,12.70
2022-11-18T06:48:48.038Z,12.70
2022-11-18T06:51:16.369Z,12.60
2022-11-18T06:53:44.904Z,12.60
2022-11-18T06:56:15.283Z,12.60
2022-11-18T06:58:43.302Z,12.60
2022-11-18T07:01:15.452Z,12.60
2022-11-18T07:03:45.542Z,12.60
2022-11-18T07:06:15.881Z,12.60
2022-11-18T07:08:44.857Z,12.50
2022-11-18T07:11:15.436Z,12.50
2022-11-18T07:13:44.229Z,12.50
2022-11-18T07:16:16.924Z,12.50
2022-11-18T07:18:46.876Z,12.40
2022-11-18T07:21:17.986Z,12.40
2022-11-18T07:23:46.955Z,12.40
2022-11-18T07:26:15.976Z,12.40
2022-11-18T07:28:44.852Z,12.40
2022-11-18T07:31:16.487Z,12.40
2022-11-18T07:33:46.552Z,12.40
2022-11-18T07:36:17.604Z,12.30
2022-11-18T07:38:46.135Z,12.30
2022-11-18T07:41:17.273Z,12.30
2022-11-18T07:43:46.046Z,12.30
2022-11-18T07:46:18.395Z,12.20
2022-11-18T07:48:48.440Z,12.20
2022-11-18T07:51:18.496Z,12.20
2022-11-18T07:53:47.051Z,12.20
2022-11-18T07:56:16.018Z,12.10
2022-11-18T07:58:45.187Z,12.10
2022-11-18T08:01:17.860Z,12.10
2022-11-18T08:03:47.502Z,12.00
2022-11-18T08:06:18.001Z,12.00
2022-11-18T08:08:46.950Z,12.00
2022-11-18T08:11:22.358Z,12.00
2022-11-18T08:13:52.059Z,12.00
2022-11-18T08:16:24.920Z,11.90
2022-11-18T08:18:53.529Z,11.90
2022-11-18T08:21:23.757Z,11.90
2022-11-18T08:23:53.725Z,11.90
2022-11-18T08:26:22.812Z,11.90
2022-11-18T08:28:50.974Z,11.90
2022-11-18T08:31:22.729Z,11.80
2022-11-18T08:33:54.849Z,11.80
2022-11-18T08:36:26.733Z,11.80
2022-11-18T08:38:56.821Z,11.80
2022-11-18T08:41:32.850Z,11.80
2022-11-18T08:44:01.733Z,11.80
2022-11-18T08:46:31.566Z,11.70
2022-11-18T08:49:00.379Z,11.70
2022-11-18T08:51:29.040Z,11.70
2022-11-18T08:53:57.734Z,11.70
2022-11-18T08:56:26.547Z,11.60
2022-11-18T08:58:55.166Z,11.60
2022-11-18T09:01:23.966Z,11.60
2022-11-18T09:03:53.416Z,11.50
2022-11-18T09:06:24.688Z,11.50
2022-11-18T09:08:53.443Z,11.50
2022-11-18T09:11:23.925Z,11.50
2022-11-18T09:16:42.857Z,11.50
2022-11-18T09:19:45.152Z,11.40
2022-11-18T09:22:00.508Z,11.40
2022-11-18T09:24:28.571Z,11.40
2022-11-18T09:26:56.659Z,11.40
2022-11-18T09:29:26.143Z,11.40
2022-11-18T09:31:54.436Z,11.40
2022-11-18T09:34:24.361Z,11.30
2022-11-18T09:36:55.781Z,11.30
2022-11-18T09:39:24.782Z,11.30
2022-11-18T09:42:07.621Z,11.20
2022-11-18T09:45:12.915Z,11.10
2022-11-18T09:47:42.102Z,11.10
2022-11-18T09:53:18.791Z,11.00
2022-11-18T09:55:48.645Z,11.00
2022-11-18T09:58:23.358Z,11.00
2022-11-18T10:00:51.353Z,11.00
2022-11-18T10:03:31.073Z,10.90
2022-11-18T10:06:12.168Z,10.90
2022-11-18T10:08:49.223Z,10.90
2022-11-18T10:11:21.571Z,10.80
2022-11-18T10:14:02.188Z,10.80
2022-11-18T10:16:44.704Z,10.80
2022-11-18T10:19:29.422Z,10.70
2022-11-18T10:22:24.104Z,10.70
2022-11-18T10:24:55.820Z,10.70
2022-11-18T10:27:34.620Z,10.70
2022-11-18T10:30:02.901Z,10.60
2022-11-18T10:32:30.935Z,10.60
2022-11-18T10:35:00.160Z,10.60
2022-11-18T10:38:00.324Z,10.50
2022-11-18T10:40:28.611Z,10.50
2022-11-18T10:42:57.633Z,10.50
2022-11-18T10:45:29.970Z,10.50
2022-11-18T10:48:01.504Z,10.50
2022-11-18T10:50:35.030Z,10.40
2022-11-18T10:53:06.101Z,10.40
2022-11-18T10:55:34.979Z,10.40
2022-11-18T10:58:10.908Z,10.40
2022-11-18T11:00:46.699Z,10.40
2022-11-18T11:03:34.263Z,10.40
2022-11-18T11:06:30.216Z,10.40
2022-11-18T11:09:06.717Z,10.30
2022-11-18T11:11:37.468Z,10.30
2022-11-18T11:14:22.681Z,10.30
2022-11-18T11:17:03.287Z,10.30
2022-11-18T11:19:49.088Z,10.30
2022-11-18T11:22:17.940Z,10.30
2022-11-18T11:24:48.400Z,10.30
2022-11-18T11:30:25.711Z,10.20
2022-11-18T11:33:34.237Z,10.20
2022-11-18T11:36:17.571Z,10.20
2022-11-18T11:39:04.775Z,10.10
2022-11-18T11:41:48.911Z,10.10
2022-11-18T11:44:36.999Z,10.10
2022-11-18T11:47:42.321Z,10.10
2022-11-18T11:50:20.171Z,10.10
2022-11-18T11:53:09.354Z,10.10
2022-11-18T11:55:53.901Z,10.00
2022-11-18T11:58:49.080Z,10.00
2022-11-18T12:01:28.393Z,10.00
2022-11-18T12:04:06.818Z,10.00
2022-11-18T12:06:34.961Z,10.00
2022-11-18T12:09:14.107Z,10.00
2022-11-18T12:11:50.777Z,10.00
2022-11-18T12:14:39.805Z,9.90
2022-11-18T12:17:18.838Z,9.90
2022-11-18T12:19:46.844Z,10.00
2022-11-18T12:22:14.854Z,10.00
2022-11-18T12:24:43.934Z,9.90
2022-11-18T12:27:16.055Z,9.90
2022-11-18T12:29:59.772Z,9.90
2022-11-18T12:32:34.694Z,9.90
2022-11-18T12:35:21.950Z,9.90
2022-11-18T12:38:02.698Z,9.80
2022-11-18T12:40:48.784Z,9.80
2022-11-18T12:44:07.120Z,9.80
2022-11-18T12:46:55.398Z,9.80
2022-11-18T12:50:13.310Z,9.70
2022-11-18T12:52:54.988Z,9.70
2022-11-18T12:55:32.566Z,9.70
2022-11-18T12:58:00.859Z,9.70
2022-11-18T13:03:42.606Z,9.70
2022-11-18T13:06:26.838Z,9.60
2022-11-18T13:08:59.589Z,9.60
2022-11-18T13:11:45.944Z,9.50
2022-11-18T13:14:36.619Z,9.50
2022-11-18T13:17:42.088Z,9.40
2022-11-18T13:20:23.981Z,9.30
2022-11-18T13:23:11.393Z,9.30
2022-11-18T13:25:40.594Z,9.30
2022-11-18T13:28:24.544Z,9.30
2022-11-18T13:31:00.575Z,9.30
2022-11-18T13:33:28.701Z,9.30
2022-11-18T13:35:58.075Z,9.30
2022-11-18T13:38:28.613Z,9.30
2022-11-18T13:41:08.115Z,9.30
2022-11-18T13:43:36.936Z,9.30
2022-11-18T13:46:11.049Z,9.30
2022-11-18T13:48:50.091Z,9.30
2022-11-18T13:51:19.682Z,9.30
2022-11-18T13:53:48.638Z,9.30
2022-11-18T13:56:23.941Z,9.30
2022-11-18T14:01:53.896Z,9.30
2022-11-18T14:04:24.672Z,9.30
2022-11-18T14:06:54.618Z,9.30
2022-11-18T14:09:27.549Z,9.30
2022-11-18T14:12:02.716Z,9.30
2022-11-18T14:14:34.104Z,9.30
2022-11-18T14:17:18.897Z,9.20
2022-11-18T14:19:48.241Z,9.30
2022-11-18T14:22:21.089Z,9.20
2022-11-18T14:24:57.675Z,9.20
2022-11-18T14:27:41.403Z,9.10
2022-11-18T14:30:35.984Z,9.10
2022-11-18T14:33:20.514Z,9.10
2022-11-18T14:35:56.361Z,9.00
2022-11-18T14:41:45.077Z,9.00
2022-11-18T14:44:14.272Z,8.90
2022-11-18T14:46:45.591Z,8.90
2022-11-18T14:49:18.246Z,8.90
2022-11-18T14:51:47.335Z,8.90
2022-11-18T14:54:25.543Z,8.90
2022-11-18T14:56:58.491Z,8.80
2022-11-18T14:59:26.640Z,8.80
2022-11-18T15:01:54.808Z,8.80
2022-11-18T15:04:23.037Z,8.80
2022-11-18T15:06:51.041Z,8.80
2022-11-18T15:09:20.503Z,8.80
2022-11-18T15:11:48.612Z,8.80
2022-11-18T15:14:17.125Z,8.80
2022-11-18T15:16:45.401Z,8.80
2022-11-18T15:19:16.604Z,8.80
2022-11-18T15:21:45.326Z,8.80
2022-11-18T15:24:13.497Z,8.70
2022-11-18T15:26:46.245Z,8.70
2022-11-18T15:29:19.301Z,8.70
2022-11-18T15:31:47.873Z,8.80
2022-11-18T15:34:16.359Z,8.70
2022-11-18T15:36:44.344Z,8.80
2022-11-18T15:39:13.040Z,8.70
2022-11-18T15:41:43.875Z,8.70
2022-11-18T15:44:13.086Z,8.80
2022-11-18T15:46:41.951Z,8.70
2022-11-18T15:49:16.389Z,8.70
2022-11-18T15:51:44.502Z,8.70
2022-11-18T15:54:12.480Z,8.70
2022-11-18T15:56:42.153Z,8.60
2022-11-18T15:59:13.440Z,8.60
2022-11-18T16:01:43.718Z,8.60
2022-11-18T16:04:14.350Z,8.60
2022-11-18T16:06:44.117Z,8.60
2022-11-18T16:09:13.846Z,8.60
2022-11-18T16:12:01.567Z,8.60
2022-11-18T16:14:29.793Z,8.60
2022-11-18T16:16:58.682Z,8.60
2022-11-18T16:19:31.338Z,8.60
2022-11-18T16:21:59.467Z,8.60
2022-11-18T16:24:30.016Z,8.60
2022-11-18T16:26:59.348Z,8.70
2022-11-18T16:29:27.390Z,8.70
2022-11-18T16:31:54.981Z,8.60
2022-11-18T16:34:25.760Z,8.60
2022-11-18T16:36:56.865Z,8.50
2022-11-18T16:39:27.499Z,8.50
2022-11-18T16:42:03.892Z,8.60
2022-11-18T16:44:37.004Z,8.50
2022-11-18T16:47:13.729Z,8.50
2022-11-18T16:49:43.929Z,8.50
2022-11-18T16:52:12.045Z,8.50
2022-11-18T16:54:45.377Z,8.50
2022-11-18T16:57:14.444Z,8.40
2022-11-18T16:59:43.889Z,8.50
2022-11-18T17:02:14.301Z,8.40
2022-11-18T17:04:42.752Z,8.50
2022-11-18T17:07:10.859Z,8.50
2022-11-18T17:09:39.097Z,8.50
2022-11-18T17:12:08.180Z,8.50
2022-11-18T17:14:38.124Z,8.50
2022-11-18T17:17:08.113Z,8.40
2022-11-18T17:19:36.571Z,8.50
2022-11-18T17:22:04.772Z,8.50
2022-11-18T17:24:32.807Z,8.50
2022-11-18T17:27:00.842Z,8.50
2022-11-18T17:29:29.728Z,8.50
2022-11-18T17:31:57.753Z,8.50
2022-11-18T17:34:27.196Z,8.50
2022-11-18T17:36:55.196Z,8.50
2022-11-18T17:39:23.301Z,8.50
2022-11-18T17:42:08.919Z,8.50
2022-11-18T17:44:36.950Z,8.40
2022-11-18T17:47:05.300Z,8.40
2022-11-18T17:49:34.688Z,8.40
2022-11-18T17:52:02.755Z,8.40
2022-11-18T17:54:30.756Z,8.40
2022-11-18T17:56:58.758Z,8.40
2022-11-18T17:59:26.815Z,8.30
2022-11-18T18:01:59.247Z,8.30
2022-11-18T18:04:28.160Z,8.30
2022-11-18T18:06:57.659Z,8.30
2022-11-18T18:09:30.618Z,8.20
2022-11-18T18:12:00.529Z,8.20
2022-11-18T18:14:27.725Z,8.20
2022-11-18T18:16:55.755Z,8.20
2022-11-18T18:19:24.788Z,8.20
2022-11-18T18:21:53.714Z,8.20
2022-11-18T18:24:24.028Z,8.20
2022-11-18T18:26:52.029Z,8.20
2022-11-18T18:29:20.181Z,8.20
2022-11-18T18:31:48.268Z,8.20
2022-11-18T18:34:17.074Z,8.20
2022-11-18T18:36:45.841Z,8.20
2022-11-18T18:39:14.031Z,8.20
2022-11-18T18:41:43.348Z,8.20
2022-11-18T18:44:15.370Z,8.20
2022-11-18T18:46:45.638Z,8.10
2022-11-18T18:49:20.183Z,8.10
2022-11-18T18:51:50.039Z,8.10
2022-11-18T18:54:23.094Z,8.10
2022-11-18T18:56:53.356Z,8.10
2022-11-18T18:59:21.387Z,8.10
2022-11-18T19:01:49.611Z,8.10
2022-11-18T19:04:18.093Z,8.10
2022-11-18T19:06:54.895Z,8.10
2022-11-18T19:09:27.038Z,8.10
2022-11-18T19:12:14.504Z,8.10
2022-11-18T19:14:43.065Z,8.10
2022-11-18T19:17:12.710Z,8.10
2022-11-18T19:20:00.279Z,8.10
2022-11-18T19:22:31.988Z,8.10
2022-11-18T19:27:50.560Z,8.10
2022-11-18T19:30:19.020Z,8.10
2022-11-18T19:32:47.352Z,8.10
2022-11-18T19:35:15.707Z,8.10
2022-11-18T19:37:43.715Z,8.10
2022-11-18T19:40:12.817Z,8.10
2022-11-18T19:42:42.313Z,8.10
2022-11-18T19:45:12.893Z,8.10
2022-11-18T19:47:41.000Z,8.20
2022-11-18T19:50:10.389Z,8.20
2022-11-18T19:52:38.403Z,8.10
2022-11-18T19:55:07.965Z,8.20
2022-11-18T19:57:36.106Z,8.20
2022-11-18T20:00:05.629Z,8.20
2022-11-18T20:02:39.515Z,8.20
2022-11-18T20:05:26.268Z,8.20
2022-11-18T20:07:56.325Z,8.20
2022-11-18T20:10:24.693Z,8.20
2022-11-18T20:12:52.780Z,8.20
2022-11-18T20:15:20.780Z,8.20
2022-11-18T20:17:50.173Z,8.20
2022-11-18T20:20:18.241Z,8.20
2022-11-18T20:22:46.430Z,8.20
2022-11-18T20:25:15.531Z,8.20
2022-11-18T20:27:43.570Z,8.20
2022-11-18T20:30:13.187Z,8.20
2022-11-18T20:32:41.191Z,8.20
2022-11-18T20:35:10.830Z,8.20
2022-11-18T20:37:38.932Z,8.30
2022-11-18T20:40:08.662Z,8.30
2022-11-18T20:42:54.131Z,8.30
2022-11-18T20:45:22.483Z,8.30
2022-11-18T20:47:50.778Z,8.30
2022-11-18T20:50:20.177Z,8.20
2022-11-18T20:52:48.222Z,8.30
2022-11-18T20:55:19.060Z,8.30
2022-11-18T20:57:47.095Z,8.30
2022-11-18T21:00:16.612Z,8.30
2022-11-18T21:02:44.619Z,8.30
2022-11-18T21:05:12.651Z,8.30
2022-11-18T21:07:42.029Z,8.30
2022-11-18T21:10:10.680Z,8.30
2022-11-18T21:12:59.624Z,8.30
2022-11-18T21:15:26.686Z,8.30
2022-11-18T21:17:54.745Z,8.30
2022-11-18T21:20:40.352Z,8.30
2022-11-18T21:23:09.804Z,8.30
2022-11-18T21:25:37.816Z,8.30
2022-11-18T21:28:06.141Z,8.30
2022-11-18T21:30:34.147Z,8.30
2022-11-18T21:33:02.178Z,8.30
2022-11-18T21:35:32.413Z,8.30
2022-11-18T21:38:00.708Z,8.40
2022-11-18T21:40:30.060Z,8.30
2022-11-18T21:42:58.061Z,8.30
2022-11-18T21:45:26.070Z,8.40
2022-11-18T21:47:54.093Z,8.40
2022-11-18T21:50:24.268Z,8.40
2022-11-18T21:52:52.304Z,8.40
2022-11-18T21:55:21.500Z,8.40
2022-11-18T21:57:50.850Z,8.40
2022-11-18T22:00:19.531Z,8.40
2022-11-18T22:02:47.512Z,8.40
2022-11-18T22:05:15.679Z,8.40
2022-11-18T22:07:43.706Z,8.40
2022-11-18T22:10:11.705Z,8.40
2022-11-18T22:12:39.711Z,8.40
2022-11-18T22:15:11.201Z,8.40
2022-11-18T22:17:39.266Z,8.40
2022-11-18T22:20:08.974Z,8.40
2022-11-18T22:22:37.010Z,8.40
2022-11-18T22:25:05.888Z,8.40
2022-11-18T22:27:33.904Z,8.40
2022-11-18T22:30:02.229Z,8.40
2022-11-18T22:32:31.533Z,8.40
2022-11-18T22:34:59.528Z,8.40
2022-11-18T22:37:27.520Z,8.40
2022-11-18T22:39:55.536Z,8.40
2022-11-18T22:42:41.333Z,8.40
2022-11-18T22:45:10.362Z,8.40
2022-11-18T22:47:39.760Z,8.40
2022-11-18T22:50:08.544Z,8.40
2022-11-18T22:52:36.775Z,8.40
2022-11-18T22:55:05.521Z,8.40
2022-11-18T22:57:37.046Z,8.40
2022-11-18T23:00:07.749Z,8.40
2022-11-18T23:02:35.803Z,8.50
2022-11-18T23:05:07.226Z,8.40
2022-11-18T23:07:36.306Z,8.40
2022-11-18T23:10:05.299Z,8.40
2022-11-18T23:12:50.287Z,8.40
2022-11-18T23:15:18.433Z,8.40
2022-11-18T23:17:46.457Z,8.40
2022-11-18T23:20:16.478Z,8.40
2022-11-18T23:22:44.493Z,8.40
2022-11-18T23:25:12.504Z,8.40
2022-11-18T23:27:40.680Z,8.40
2022-11-18T23:30:10.240Z,8.40
2022-11-18T23:32:38.217Z,8.40
2022-11-18T23:35:07.062Z,8.40
2022-11-18T23:37:36.381Z,8.40
2022-11-18T23:40:05.062Z,8.40
2022-11-18T23:42:33.221Z,8.40
2022-11-18T23:45:05.301Z,8.40
2022-11-18T23:47:33.689Z,8.40
2022-11-18T23:50:01.935Z,8.40
2022-11-18T23:52:30.137Z,8.40
2022-11-18T23:55:01.341Z,8.40
2022-11-18T23:57:29.385Z,8.40
2022-11-18T23:59:57.874Z,8.40
